Terminal Aerodrome Forecast
Issued by NWS

Home | Current Version | Previous Version | Text Only | Print | Product List | Glossary On
Versions: 1 2 3 4 5 6 7 8 9 10 11 12 13 14 15 16 17 18 19 20 21
000
FTUS41 KBGM 240800 AAA
TAFRME
TAF AMD
KRME 240854Z 2409/2506 13015KT P6SM -RA OVC025 WS020/17045KT
     FM241100 14015KT P6SM OVC025 WS020/19045KT
     FM241800 14015KT P6SM BKN045 WS020/20040KT
     FM250000 23012G22KT P6SM OVC040=

USA.gov is the U.S. government's official web portal to all federal, state and local government web resources and services.